createdAt,value
2023-01-27T06:50:16.903Z,24.65
2023-01-27T06:53:18.991Z,22.63
2023-01-27T06:56:20.776Z,22.02
2023-01-27T06:59:22.796Z,23.00
2023-01-27T07:02:24.718Z,21.73
2023-01-27T07:05:26.926Z,22.83
2023-01-27T07:08:28.913Z,21.63
2023-01-27T07:11:31.743Z,21.70
2023-01-27T07:14:34.187Z,19.55
2023-01-27T07:17:36.554Z,17.98
2023-01-27T07:20:39.248Z,17.55
2023-01-27T07:23:41.782Z,17.40
2023-01-27T07:26:45.193Z,18.55
2023-01-27T07:29:46.960Z,16.95
2023-01-27T07:32:50.229Z,16.58
2023-01-27T07:35:52.438Z,16.70
2023-01-27T07:38:54.184Z,15.18
2023-01-27T07:41:57.543Z,14.32
2023-01-27T07:44:59.222Z,16.02
2023-01-27T07:48:02.628Z,14.60
2023-01-27T07:51:04.467Z,14.20
2023-01-27T07:54:06.800Z,15.20
2023-01-27T07:57:08.532Z,14.40
2023-01-27T08:00:15.471Z,15.90
2023-01-27T08:03:23.032Z,15.05
2023-01-27T08:06:25.054Z,14.88
2023-01-27T08:09:26.742Z,13.70
2023-01-27T08:12:28.492Z,14.50
2023-01-27T08:15:30.293Z,16.23
2023-01-27T08:18:33.881Z,14.43
2023-01-27T08:21:35.982Z,15.02
2023-01-27T08:24:37.745Z,14.32
2023-01-27T08:27:39.433Z,15.40
2023-01-27T08:30:41.528Z,13.95
2023-01-27T08:33:45.818Z,15.63
2023-01-27T08:36:47.680Z,14.73
2023-01-27T08:39:49.388Z,15.15
2023-01-27T08:42:51.249Z,13.45
2023-01-27T08:45:53.245Z,14.52
2023-01-27T08:48:55.157Z,16.30
2023-01-27T08:51:57.008Z,16.55
2023-01-27T08:54:58.961Z,15.20
2023-01-27T08:58:00.948Z,13.80
2023-01-27T09:01:05.808Z,14.57
2023-01-27T09:04:09.320Z,14.13
2023-01-27T09:07:12.300Z,15.15
2023-01-27T09:10:16.959Z,12.85
2023-01-27T09:13:22.774Z,13.68
2023-01-27T09:16:25.267Z,14.18
2023-01-27T09:19:27.407Z,12.95
2023-01-27T09:22:31.319Z,12.00
2023-01-27T09:25:34.035Z,11.43
2023-01-27T09:28:36.351Z,10.80
2023-01-27T09:31:38.360Z,11.98
2023-01-27T09:34:40.617Z,12.38
2023-01-27T09:37:47.345Z,12.35
2023-01-27T09:41:29.237Z,12.13
2023-01-27T09:44:54.658Z,11.77
2023-01-27T09:48:26.063Z,13.93
2023-01-27T09:51:53.838Z,11.73
2023-01-27T09:55:21.944Z,11.48
2023-01-27T09:58:51.875Z,12.68
2023-01-27T10:02:21.098Z,12.70
2023-01-27T10:06:04.173Z,14.10
2023-01-27T10:09:40.736Z,13.45
2023-01-27T10:13:16.055Z,13.23
2023-01-27T10:16:37.398Z,13.73
2023-01-27T10:20:06.855Z,13.85
2023-01-27T10:23:32.489Z,12.90
2023-01-27T10:29:47.508Z,12.27
2023-01-27T10:33:09.078Z,12.23
2023-01-27T10:36:24.557Z,10.95
2023-01-27T10:39:47.103Z,10.00
2023-01-27T10:43:25.590Z,10.85
2023-01-27T10:46:55.302Z,10.52
2023-01-27T10:50:03.395Z,11.18
2023-01-27T10:53:35.199Z,11.00
2023-01-27T10:56:59.820Z,11.10
2023-01-27T11:06:55.943Z,11.32
2023-01-27T11:10:01.605Z,11.82
2023-01-27T11:13:05.567Z,11.43
2023-01-27T11:16:16.175Z,13.40
2023-01-27T11:19:52.823Z,12.23
2023-01-27T11:23:04.384Z,13.50
2023-01-27T11:26:23.578Z,13.32
2023-01-27T11:29:36.040Z,12.70
2023-01-27T11:32:54.796Z,13.55
2023-01-27T11:35:56.579Z,13.93
2023-01-27T11:38:59.049Z,13.15
2023-01-27T11:42:00.837Z,14.27
2023-01-27T11:45:02.915Z,13.60
2023-01-27T11:48:08.060Z,13.75
2023-01-27T11:51:22.873Z,12.88
2023-01-27T11:54:27.734Z,13.57
2023-01-27T11:57:29.556Z,12.93
2023-01-27T12:00:44.145Z,13.88
2023-01-27T12:03:57.281Z,12.52
2023-01-27T12:07:05.645Z,12.75
2023-01-27T12:10:24.270Z,11.82
2023-01-27T12:13:26.403Z,13.38
2023-01-27T12:16:50.204Z,13.18
2023-01-27T12:19:55.904Z,13.02
2023-01-27T12:23:01.572Z,12.48
2023-01-27T12:26:11.961Z,11.45
2023-01-27T12:29:20.108Z,12.20
2023-01-27T12:32:34.263Z,11.50
2023-01-27T12:35:37.184Z,11.85
2023-01-27T12:38:45.761Z,10.02
2023-01-27T12:41:47.538Z,10.88
2023-01-27T12:44:49.336Z,10.80
2023-01-27T12:48:13.387Z,10.35
2023-01-27T12:51:20.921Z,10.20
2023-01-27T12:54:27.391Z,9.65
2023-01-27T12:57:32.567Z,10.40
2023-01-27T13:00:34.660Z,11.02
2023-01-27T13:03:40.504Z,9.55
2023-01-27T13:06:55.206Z,10.05
2023-01-27T13:10:02.985Z,9.90
2023-01-27T13:13:05.668Z,8.77
2023-01-27T13:16:22.527Z,8.18
2023-01-27T13:19:43.019Z,8.82
2023-01-27T13:22:58.231Z,8.77
2023-01-27T13:26:20.161Z,8.52
2023-01-27T13:29:27.002Z,8.95
2023-01-27T13:32:33.674Z,8.18
2023-01-27T13:35:41.758Z,8.77
2023-01-27T13:38:52.588Z,8.80
2023-01-27T13:42:16.120Z,8.27
2023-01-27T13:45:23.218Z,9.15
2023-01-27T13:48:31.677Z,8.45
2023-01-27T13:51:33.713Z,8.85
2023-01-27T13:54:35.426Z,8.02
2023-01-27T13:57:52.241Z,9.02
2023-01-27T14:01:10.500Z,9.25
2023-01-27T14:04:39.067Z,9.73
2023-01-27T14:07:54.031Z,9.27
2023-01-27T14:11:12.990Z,8.60
2023-01-27T14:14:58.527Z,9.38
2023-01-27T14:18:14.654Z,8.32
2023-01-27T14:21:45.652Z,8.30
2023-01-27T14:24:59.972Z,8.33
2023-01-27T14:28:28.530Z,7.95
2023-01-27T14:31:57.139Z,9.20
2023-01-27T14:35:30.409Z,8.25
2023-01-27T14:38:39.752Z,8.00
2023-01-27T14:41:54.491Z,7.28
2023-01-27T14:45:06.035Z,9.00
2023-01-27T14:48:37.616Z,8.18
2023-01-27T14:51:46.979Z,7.50
2023-01-27T14:55:03.302Z,7.97
2023-01-27T14:58:28.360Z,8.23
2023-01-27T15:01:39.627Z,6.93
2023-01-27T15:04:54.732Z,8.70
2023-01-27T15:08:07.641Z,8.23
2023-01-27T15:11:49.295Z,8.45
2023-01-27T15:15:07.072Z,8.23
2023-01-27T15:18:39.608Z,7.63
2023-01-27T15:21:48.921Z,7.78
2023-01-27T15:25:33.179Z,8.38
2023-01-27T15:28:40.327Z,8.68
2023-01-27T15:31:43.120Z,8.10
2023-01-27T15:34:51.415Z,7.93
2023-01-27T15:38:08.360Z,7.47
2023-01-27T15:41:14.701Z,9.63
2023-01-27T15:44:30.428Z,9.13
2023-01-27T15:47:35.510Z,9.00
2023-01-27T15:53:45.224Z,8.75
2023-01-27T15:56:51.291Z,9.00
2023-01-27T15:59:59.204Z,8.88
2023-01-27T16:03:03.362Z,9.23
2023-01-27T16:06:09.705Z,9.40
2023-01-27T16:09:23.691Z,8.80
2023-01-27T16:12:27.060Z,9.23
2023-01-27T16:15:30.767Z,9.23
2023-01-27T16:18:51.967Z,8.23
2023-01-27T16:21:58.371Z,9.45
2023-01-27T16:25:17.394Z,8.52
2023-01-27T16:28:26.321Z,9.68
2023-01-27T16:31:30.073Z,8.98
2023-01-27T16:34:36.094Z,8.77
2023-01-27T16:37:39.482Z,9.38
2023-01-27T16:40:48.459Z,9.95
2023-01-27T16:43:58.067Z,9.23
2023-01-27T16:47:16.085Z,10.27
2023-01-27T16:50:40.454Z,9.93
2023-01-27T16:53:47.253Z,10.25
2023-01-27T16:56:51.482Z,12.18
2023-01-27T16:59:53.718Z,9.68
